Connerville, Oklahoma
Current Conditions -  °F | °C
As of 3:55 PM on Tuesday 25 Nov 2014 (Local Time) from KADM Reporting Station
Clear Clear  
Wind Chill: 57°   Ceiling: Unl
Heat Index: 57°   Visibility: 10mi
Dew Point: 27°   Wind: 7mph
Humidity: 31%   Direction: 250°WSW
Pressure: 30.15"   Gusts: NA
Location:  34.45°N, 96.64°W
Report Text: KADM 252155Z 25006KT 10SM SKC 14/M03 A3015
Loading
Personal Weather Stations






























Interactive Weather Map New forecast layout! Learn more

10-Day Weather Forecast

Advertisements
Track Severe Weather on mobile